sensor_id;sensor_type;location;lat;lon;timestamp;P1;durP1;ratioP1;P2;durP2;ratioP2
21862;SDS011;11096;51.338;12.524;2023-07-30T00:01:29;8.88;;;3.00;;
21862;SDS011;11096;51.338;12.524;2023-07-30T00:03:54;10.48;;;3.40;;
21862;SDS011;11096;51.338;12.524;2023-07-30T00:06:20;8.32;;;3.33;;
21862;SDS011;11096;51.338;12.524;2023-07-30T00:08:45;6.32;;;3.42;;
21862;SDS011;11096;51.338;12.524;2023-07-30T00:11:10;6.70;;;2.70;;
21862;SDS011;11096;51.338;12.524;2023-07-30T00:13:36;6.40;;;3.35;;
21862;SDS011;11096;51.338;12.524;2023-07-30T00:16:01;10.55;;;3.33;;
21862;SDS011;11096;51.338;12.524;2023-07-30T00:18:26;13.00;;;3.63;;
21862;SDS011;11096;51.338;12.524;2023-07-30T00:20:52;5.78;;;3.03;;
21862;SDS011;11096;51.338;12.524;2023-07-30T00:23:17;9.93;;;2.70;;
21862;SDS011;11096;51.338;12.524;2023-07-30T00:25:43;12.95;;;4.53;;
21862;SDS011;11096;51.338;12.524;2023-07-30T00:28:08;6.95;;;3.17;;
21862;SDS011;11096;51.338;12.524;2023-07-30T00:30:33;13.68;;;3.38;;
21862;SDS011;11096;51.338;12.524;2023-07-30T00:32:59;11.68;;;2.97;;
21862;SDS011;11096;51.338;12.524;2023-07-30T00:35:24;12.48;;;3.50;;
21862;SDS011;11096;51.338;12.524;2023-07-30T00:37:49;10.63;;;3.20;;
21862;SDS011;11096;51.338;12.524;2023-07-30T00:40:15;8.82;;;3.30;;
21862;SDS011;11096;51.338;12.524;2023-07-30T00:42:40;7.00;;;3.72;;
21862;SDS011;11096;51.338;12.524;2023-07-30T00:45:06;6.55;;;3.40;;
21862;SDS011;11096;51.338;12.524;2023-07-30T00:47:32;6.40;;;3.05;;
21862;SDS011;11096;51.338;12.524;2023-07-30T00:49:57;7.45;;;3.03;;
21862;SDS011;11096;51.338;12.524;2023-07-30T00:52:23;7.80;;;3.40;;
21862;SDS011;11096;51.338;12.524;2023-07-30T00:54:50;9.45;;;3.25;;
21862;SDS011;11096;51.338;12.524;2023-07-30T00:57:17;4.72;;;3.22;;
21862;SDS011;11096;51.338;12.524;2023-07-30T00:59:44;6.53;;;3.70;;
21862;SDS011;11096;51.338;12.524;2023-07-30T01:02:11;8.98;;;3.10;;
21862;SDS011;11096;51.338;12.524;2023-07-30T01:04:36;6.93;;;3.20;;
21862;SDS011;11096;51.338;12.524;2023-07-30T01:07:02;6.90;;;2.72;;
21862;SDS011;11096;51.338;12.524;2023-07-30T01:09:28;13.05;;;3.15;;
21862;SDS011;11096;51.338;12.524;2023-07-30T01:11:54;6.90;;;3.40;;
21862;SDS011;11096;51.338;12.524;2023-07-30T01:14:20;6.47;;;2.85;;
21862;SDS011;11096;51.338;12.524;2023-07-30T01:16:46;13.35;;;3.80;;
21862;SDS011;11096;51.338;12.524;2023-07-30T01:19:12;9.35;;;3.22;;
21862;SDS011;11096;51.338;12.524;2023-07-30T01:21:37;7.05;;;2.75;;
21862;SDS011;11096;51.338;12.524;2023-07-30T01:24:03;8.15;;;3.35;;
21862;SDS011;11096;51.338;12.524;2023-07-30T01:27:04;11.63;;;3.20;;
21862;SDS011;11096;51.338;12.524;2023-07-30T01:29:33;6.93;;;3.42;;
21862;SDS011;11096;51.338;12.524;2023-07-30T01:32:08;10.55;;;3.45;;
21862;SDS011;11096;51.338;12.524;2023-07-30T01:34:36;11.88;;;3.55;;
21862;SDS011;11096;51.338;12.524;2023-07-30T01:37:02;6.55;;;3.30;;
21862;SDS011;11096;51.338;12.524;2023-07-30T01:39:30;9.70;;;4.10;;
21862;SDS011;11096;51.338;12.524;2023-07-30T01:41:57;11.15;;;3.60;;
21862;SDS011;11096;51.338;12.524;2023-07-30T01:44:22;8.15;;;3.10;;
21862;SDS011;11096;51.338;12.524;2023-07-30T01:46:47;6.75;;;3.22;;
21862;SDS011;11096;51.338;12.524;2023-07-30T01:49:13;6.05;;;2.90;;
21862;SDS011;11096;51.338;12.524;2023-07-30T01:51:38;6.95;;;3.17;;
21862;SDS011;11096;51.338;12.524;2023-07-30T01:54:04;4.53;;;2.75;;
21862;SDS011;11096;51.338;12.524;2023-07-30T01:56:29;6.75;;;2.88;;
21862;SDS011;11096;51.338;12.524;2023-07-30T01:58:54;8.10;;;3.22;;
21862;SDS011;11096;51.338;12.524;2023-07-30T02:01:20;9.18;;;3.83;;
21862;SDS011;11096;51.338;12.524;2023-07-30T02:03:45;9.52;;;4.00;;
21862;SDS011;11096;51.338;12.524;2023-07-30T02:06:11;8.18;;;3.28;;
21862;SDS011;11096;51.338;12.524;2023-07-30T02:08:37;8.38;;;3.20;;
21862;SDS011;11096;51.338;12.524;2023-07-30T02:11:02;8.77;;;3.38;;
21862;SDS011;11096;51.338;12.524;2023-07-30T02:13:28;7.07;;;3.08;;
21862;SDS011;11096;51.338;12.524;2023-07-30T02:15:53;7.35;;;2.92;;
21862;SDS011;11096;51.338;12.524;2023-07-30T02:18:19;10.88;;;3.13;;
21862;SDS011;11096;51.338;12.524;2023-07-30T02:20:44;6.85;;;3.25;;
21862;SDS011;11096;51.338;12.524;2023-07-30T02:23:09;6.47;;;3.05;;
21862;SDS011;11096;51.338;12.524;2023-07-30T02:25:35;7.75;;;2.95;;
21862;SDS011;11096;51.338;12.524;2023-07-30T02:28:00;9.48;;;3.80;;
21862;SDS011;11096;51.338;12.524;2023-07-30T02:30:27;6.18;;;3.00;;
21862;SDS011;11096;51.338;12.524;2023-07-30T02:32:52;5.95;;;2.67;;
21862;SDS011;11096;51.338;12.524;2023-07-30T02:35:18;5.50;;;2.83;;
21862;SDS011;11096;51.338;12.524;2023-07-30T02:37:43;12.35;;;3.40;;
21862;SDS011;11096;51.338;12.524;2023-07-30T02:40:09;11.68;;;3.35;;
21862;SDS011;11096;51.338;12.524;2023-07-30T02:42:35;11.13;;;3.15;;
21862;SDS011;11096;51.338;12.524;2023-07-30T02:45:00;6.93;;;3.10;;
21862;SDS011;11096;51.338;12.524;2023-07-30T02:47:26;7.60;;;3.08;;
21862;SDS011;11096;51.338;12.524;2023-07-30T02:49:51;6.82;;;3.17;;
21862;SDS011;11096;51.338;12.524;2023-07-30T02:52:16;12.57;;;3.65;;
21862;SDS011;11096;51.338;12.524;2023-07-30T02:54:42;10.88;;;2.97;;
21862;SDS011;11096;51.338;12.524;2023-07-30T02:57:07;8.43;;;3.25;;
21862;SDS011;11096;51.338;12.524;2023-07-30T02:59:32;6.32;;;3.08;;
21862;SDS011;11096;51.338;12.524;2023-07-30T03:02:01;6.18;;;3.08;;
21862;SDS011;11096;51.338;12.524;2023-07-30T03:04:27;10.07;;;3.33;;
21862;SDS011;11096;51.338;12.524;2023-07-30T03:06:52;11.35;;;3.13;;
21862;SDS011;11096;51.338;12.524;2023-07-30T03:09:18;7.22;;;3.30;;
21862;SDS011;11096;51.338;12.524;2023-07-30T03:11:43;12.63;;;3.17;;
21862;SDS011;11096;51.338;12.524;2023-07-30T03:14:08;7.57;;;3.28;;
21862;SDS011;11096;51.338;12.524;2023-07-30T03:16:34;4.80;;;2.83;;
21862;SDS011;11096;51.338;12.524;2023-07-30T03:18:59;6.70;;;2.85;;
21862;SDS011;11096;51.338;12.524;2023-07-30T03:21:25;6.70;;;2.90;;
21862;SDS011;11096;51.338;12.524;2023-07-30T03:23:50;5.50;;;3.05;;
21862;SDS011;11096;51.338;12.524;2023-07-30T03:26:15;5.43;;;2.80;;
21862;SDS011;11096;51.338;12.524;2023-07-30T03:28:41;8.07;;;3.55;;
21862;SDS011;11096;51.338;12.524;2023-07-30T03:31:06;5.97;;;3.60;;
21862;SDS011;11096;51.338;12.524;2023-07-30T03:33:32;4.88;;;3.33;;
21862;SDS011;11096;51.338;12.524;2023-07-30T03:35:58;10.23;;;3.58;;
21862;SDS011;11096;51.338;12.524;2023-07-30T03:38:24;9.20;;;3.78;;
21862;SDS011;11096;51.338;12.524;2023-07-30T03:40:49;7.45;;;3.67;;
21862;SDS011;11096;51.338;12.524;2023-07-30T03:43:15;5.75;;;3.08;;
21862;SDS011;11096;51.338;12.524;2023-07-30T03:45:40;11.65;;;3.42;;
21862;SDS011;11096;51.338;12.524;2023-07-30T03:48:06;7.05;;;3.67;;
21862;SDS011;11096;51.338;12.524;2023-07-30T03:50:31;6.30;;;3.40;;
21862;SDS011;11096;51.338;12.524;2023-07-30T03:52:56;4.88;;;3.55;;
21862;SDS011;11096;51.338;12.524;2023-07-30T03:55:23;8.95;;;3.92;;
21862;SDS011;11096;51.338;12.524;2023-07-30T03:57:49;8.40;;;3.55;;
21862;SDS011;11096;51.338;12.524;2023-07-30T04:00:14;6.88;;;3.60;;
21862;SDS011;11096;51.338;12.524;2023-07-30T04:02:40;6.72;;;4.05;;
21862;SDS011;11096;51.338;12.524;2023-07-30T04:05:05;9.95;;;4.00;;
21862;SDS011;11096;51.338;12.524;2023-07-30T04:07:31;8.07;;;3.30;;
21862;SDS011;11096;51.338;12.524;2023-07-30T04:09:56;8.63;;;4.18;;
21862;SDS011;11096;51.338;12.524;2023-07-30T04:12:22;11.55;;;3.72;;
21862;SDS011;11096;51.338;12.524;2023-07-30T04:14:47;5.78;;;3.60;;
21862;SDS011;11096;51.338;12.524;2023-07-30T04:17:13;6.47;;;3.33;;
21862;SDS011;11096;51.338;12.524;2023-07-30T04:19:38;7.60;;;3.67;;
21862;SDS011;11096;51.338;12.524;2023-07-30T04:22:04;6.60;;;3.38;;
21862;SDS011;11096;51.338;12.524;2023-07-30T04:24:29;9.80;;;4.40;;
21862;SDS011;11096;51.338;12.524;2023-07-30T04:26:55;8.55;;;3.70;;
21862;SDS011;11096;51.338;12.524;2023-07-30T04:29:20;9.93;;;4.18;;
21862;SDS011;11096;51.338;12.524;2023-07-30T04:31:45;5.05;;;3.50;;
21862;SDS011;11096;51.338;12.524;2023-07-30T04:34:11;9.38;;;3.60;;
21862;SDS011;11096;51.338;12.524;2023-07-30T04:36:36;4.38;;;3.67;;
21862;SDS011;11096;51.338;12.524;2023-07-30T04:39:01;5.97;;;3.83;;
21862;SDS011;11096;51.338;12.524;2023-07-30T04:41:27;8.48;;;3.92;;
21862;SDS011;11096;51.338;12.524;2023-07-30T04:43:52;9.88;;;4.25;;
21862;SDS011;11096;51.338;12.524;2023-07-30T04:46:18;12.07;;;3.85;;
21862;SDS011;11096;51.338;12.524;2023-07-30T04:48:43;6.80;;;4.22;;
21862;SDS011;11096;51.338;12.524;2023-07-30T04:51:09;10.38;;;3.70;;
21862;SDS011;11096;51.338;12.524;2023-07-30T04:53:34;11.32;;;4.20;;
21862;SDS011;11096;51.338;12.524;2023-07-30T04:55:59;9.75;;;4.05;;
21862;SDS011;11096;51.338;12.524;2023-07-30T04:58:25;10.10;;;3.83;;
21862;SDS011;11096;51.338;12.524;2023-07-30T05:00:50;9.57;;;5.07;;
21862;SDS011;11096;51.338;12.524;2023-07-30T05:03:16;8.20;;;4.22;;
21862;SDS011;11096;51.338;12.524;2023-07-30T05:05:41;9.25;;;4.57;;
21862;SDS011;11096;51.338;12.524;2023-07-30T05:08:07;7.82;;;4.53;;
21862;SDS011;11096;51.338;12.524;2023-07-30T05:10:33;8.35;;;4.55;;
21862;SDS011;11096;51.338;12.524;2023-07-30T05:12:58;12.07;;;4.10;;
21862;SDS011;11096;51.338;12.524;2023-07-30T05:15:24;10.30;;;4.78;;
21862;SDS011;11096;51.338;12.524;2023-07-30T05:17:49;11.07;;;4.63;;
21862;SDS011;11096;51.338;12.524;2023-07-30T05:20:15;9.00;;;4.55;;
21862;SDS011;11096;51.338;12.524;2023-07-30T05:22:41;11.15;;;4.85;;
21862;SDS011;11096;51.338;12.524;2023-07-30T05:25:06;8.20;;;4.80;;
21862;SDS011;11096;51.338;12.524;2023-07-30T05:27:32;8.27;;;4.43;;
21862;SDS011;11096;51.338;12.524;2023-07-30T05:29:58;5.80;;;4.20;;
21862;SDS011;11096;51.338;12.524;2023-07-30T05:32:23;7.57;;;4.07;;
21862;SDS011;11096;51.338;12.524;2023-07-30T05:34:48;9.80;;;4.38;;
21862;SDS011;11096;51.338;12.524;2023-07-30T05:37:14;5.13;;;3.83;;
21862;SDS011;11096;51.338;12.524;2023-07-30T05:39:39;8.40;;;3.63;;
21862;SDS011;11096;51.338;12.524;2023-07-30T05:42:04;4.60;;;3.55;;
21862;SDS011;11096;51.338;12.524;2023-07-30T05:44:30;5.05;;;3.83;;
21862;SDS011;11096;51.338;12.524;2023-07-30T05:46:55;9.40;;;4.38;;
21862;SDS011;11096;51.338;12.524;2023-07-30T05:49:21;9.52;;;3.85;;
21862;SDS011;11096;51.338;12.524;2023-07-30T05:51:46;8.13;;;4.18;;
21862;SDS011;11096;51.338;12.524;2023-07-30T05:54:12;11.50;;;3.70;;
21862;SDS011;11096;51.338;12.524;2023-07-30T05:56:37;6.70;;;3.38;;
21862;SDS011;11096;51.338;12.524;2023-07-30T05:59:03;8.15;;;3.78;;
21862;SDS011;11096;51.338;12.524;2023-07-30T06:01:28;8.05;;;3.42;;
21862;SDS011;11096;51.338;12.524;2023-07-30T06:03:53;7.88;;;3.50;;
21862;SDS011;11096;51.338;12.524;2023-07-30T06:06:19;6.05;;;3.80;;
21862;SDS011;11096;51.338;12.524;2023-07-30T06:08:51;7.30;;;3.80;;
21862;SDS011;11096;51.338;12.524;2023-07-30T06:11:17;4.63;;;3.85;;
21862;SDS011;11096;51.338;12.524;2023-07-30T06:13:43;7.65;;;3.72;;
21862;SDS011;11096;51.338;12.524;2023-07-30T06:16:09;6.55;;;3.40;;
21862;SDS011;11096;51.338;12.524;2023-07-30T06:18:35;8.38;;;3.53;;
21862;SDS011;11096;51.338;12.524;2023-07-30T06:21:00;6.13;;;3.80;;
21862;SDS011;11096;51.338;12.524;2023-07-30T06:23:26;7.00;;;3.08;;
21862;SDS011;11096;51.338;12.524;2023-07-30T06:25:51;9.93;;;3.03;;
21862;SDS011;11096;51.338;12.524;2023-07-30T06:28:16;4.78;;;3.08;;
21862;SDS011;11096;51.338;12.524;2023-07-30T06:30:42;6.10;;;2.80;;
21862;SDS011;11096;51.338;12.524;2023-07-30T06:33:07;4.07;;;2.50;;
21862;SDS011;11096;51.338;12.524;2023-07-30T06:35:33;8.07;;;2.80;;
21862;SDS011;11096;51.338;12.524;2023-07-30T06:37:58;5.07;;;2.80;;
21862;SDS011;11096;51.338;12.524;2023-07-30T06:40:23;6.50;;;2.83;;
21862;SDS011;11096;51.338;12.524;2023-07-30T06:42:49;10.40;;;2.92;;
21862;SDS011;11096;51.338;12.524;2023-07-30T06:45:14;6.78;;;2.92;;
21862;SDS011;11096;51.338;12.524;2023-07-30T06:47:40;3.40;;;2.72;;
21862;SDS011;11096;51.338;12.524;2023-07-30T06:50:06;6.00;;;2.97;;
21862;SDS011;11096;51.338;12.524;2023-07-30T06:52:34;6.18;;;3.10;;
21862;SDS011;11096;51.338;12.524;2023-07-30T06:55:00;5.32;;;2.67;;
21862;SDS011;11096;51.338;12.524;2023-07-30T06:57:27;5.18;;;2.50;;
21862;SDS011;11096;51.338;12.524;2023-07-30T06:59:53;4.35;;;2.63;;
21862;SDS011;11096;51.338;12.524;2023-07-30T07:02:18;3.00;;;2.15;;
21862;SDS011;11096;51.338;12.524;2023-07-30T07:04:44;7.97;;;2.58;;
21862;SDS011;11096;51.338;12.524;2023-07-30T07:07:09;4.45;;;2.47;;
21862;SDS011;11096;51.338;12.524;2023-07-30T07:09:35;5.28;;;2.30;;
21862;SDS011;11096;51.338;12.524;2023-07-30T07:12:00;5.90;;;3.50;;
21862;SDS011;11096;51.338;12.524;2023-07-30T07:14:26;5.82;;;3.50;;
21862;SDS011;11096;51.338;12.524;2023-07-30T07:16:52;9.77;;;3.20;;
21862;SDS011;11096;51.338;12.524;2023-07-30T07:19:20;6.30;;;2.97;;
21862;SDS011;11096;51.338;12.524;2023-07-30T07:21:45;3.55;;;2.58;;
21862;SDS011;11096;51.338;12.524;2023-07-30T07:24:11;3.47;;;2.78;;
21862;SDS011;11096;51.338;12.524;2023-07-30T07:26:36;3.45;;;2.63;;
21862;SDS011;11096;51.338;12.524;2023-07-30T07:29:01;4.30;;;3.05;;
21862;SDS011;11096;51.338;12.524;2023-07-30T07:31:27;5.07;;;2.67;;
21862;SDS011;11096;51.338;12.524;2023-07-30T07:33:52;3.33;;;2.55;;
21862;SDS011;11096;51.338;12.524;2023-07-30T07:36:17;3.97;;;2.80;;
21862;SDS011;11096;51.338;12.524;2023-07-30T07:38:43;2.83;;;2.30;;
21862;SDS011;11096;51.338;12.524;2023-07-30T07:41:13;4.82;;;2.00;;
21862;SDS011;11096;51.338;12.524;2023-07-30T07:43:40;6.55;;;2.80;;
21862;SDS011;11096;51.338;12.524;2023-07-30T07:46:05;4.72;;;2.30;;
21862;SDS011;11096;51.338;12.524;2023-07-30T07:48:38;2.90;;;2.03;;
21862;SDS011;11096;51.338;12.524;2023-07-30T07:51:04;7.38;;;2.28;;
21862;SDS011;11096;51.338;12.524;2023-07-30T07:53:29;3.63;;;2.13;;
21862;SDS011;11096;51.338;12.524;2023-07-30T07:55:55;5.00;;;1.80;;
21862;SDS011;11096;51.338;12.524;2023-07-30T07:58:20;5.47;;;2.42;;
21862;SDS011;11096;51.338;12.524;2023-07-30T08:00:46;6.03;;;2.33;;
21862;SDS011;11096;51.338;12.524;2023-07-30T08:03:11;4.22;;;2.30;;
21862;SDS011;11096;51.338;12.524;2023-07-30T08:05:36;3.13;;;2.17;;
21862;SDS011;11096;51.338;12.524;2023-07-30T08:08:02;4.88;;;2.22;;
21862;SDS011;11096;51.338;12.524;2023-07-30T08:10:27;4.97;;;2.22;;
21862;SDS011;11096;51.338;12.524;2023-07-30T08:12:53;3.05;;;1.85;;
21862;SDS011;11096;51.338;12.524;2023-07-30T08:15:18;4.80;;;2.10;;
21862;SDS011;11096;51.338;12.524;2023-07-30T08:17:44;3.90;;;1.90;;
21862;SDS011;11096;51.338;12.524;2023-07-30T08:20:09;3.67;;;2.05;;
21862;SDS011;11096;51.338;12.524;2023-07-30T08:22:35;7.10;;;2.28;;
21862;SDS011;11096;51.338;12.524;2023-07-30T08:25:01;5.95;;;2.10;;
21862;SDS011;11096;51.338;12.524;2023-07-30T08:27:27;5.43;;;2.10;;
21862;SDS011;11096;51.338;12.524;2023-07-30T08:29:52;3.78;;;2.22;;
21862;SDS011;11096;51.338;12.524;2023-07-30T08:32:17;5.28;;;2.22;;
21862;SDS011;11096;51.338;12.524;2023-07-30T08:34:43;4.90;;;2.25;;
21862;SDS011;11096;51.338;12.524;2023-07-30T08:37:08;4.38;;;2.30;;
21862;SDS011;11096;51.338;12.524;2023-07-30T08:39:33;3.53;;;2.17;;
21862;SDS011;11096;51.338;12.524;2023-07-30T08:41:59;2.83;;;1.85;;
21862;SDS011;11096;51.338;12.524;2023-07-30T08:44:24;3.75;;;2.08;;
21862;SDS011;11096;51.338;12.524;2023-07-30T08:46:50;3.22;;;2.22;;
21862;SDS011;11096;51.338;12.524;2023-07-30T08:49:16;4.03;;;2.10;;
21862;SDS011;11096;51.338;12.524;2023-07-30T08:51:41;2.65;;;1.77;;
21862;SDS011;11096;51.338;12.524;2023-07-30T08:54:09;2.42;;;1.88;;
21862;SDS011;11096;51.338;12.524;2023-07-30T08:56:37;4.00;;;1.52;;
21862;SDS011;11096;51.338;12.524;2023-07-30T08:59:03;2.25;;;1.50;;
21862;SDS011;11096;51.338;12.524;2023-07-30T09:01:30;2.35;;;1.67;;
21862;SDS011;11096;51.338;12.524;2023-07-30T09:03:57;3.67;;;1.90;;
21862;SDS011;11096;51.338;12.524;2023-07-30T09:06:25;5.03;;;2.20;;
21862;SDS011;11096;51.338;12.524;2023-07-30T09:08:50;4.03;;;1.67;;
21862;SDS011;11096;51.338;12.524;2023-07-30T09:11:16;3.50;;;1.70;;
21862;SDS011;11096;51.338;12.524;2023-07-30T09:13:41;3.85;;;1.30;;
21862;SDS011;11096;51.338;12.524;2023-07-30T09:16:10;6.72;;;1.55;;
21862;SDS011;11096;51.338;12.524;2023-07-30T09:18:40;2.47;;;1.40;;
21862;SDS011;11096;51.338;12.524;2023-07-30T09:21:10;2.97;;;1.20;;
21862;SDS011;11096;51.338;12.524;2023-07-30T09:23:40;1.77;;;1.27;;
21862;SDS011;11096;51.338;12.524;2023-07-30T09:26:09;2.08;;;1.50;;
21862;SDS011;11096;51.338;12.524;2023-07-30T09:28:36;3.47;;;1.45;;
21862;SDS011;11096;51.338;12.524;2023-07-30T09:31:04;3.15;;;1.60;;
21862;SDS011;11096;51.338;12.524;2023-07-30T09:33:32;2.60;;;1.33;;
21862;SDS011;11096;51.338;12.524;2023-07-30T09:35:58;2.83;;;1.17;;
21862;SDS011;11096;51.338;12.524;2023-07-30T09:38:26;5.28;;;1.80;;
21862;SDS011;11096;51.338;12.524;2023-07-30T09:40:59;2.22;;;1.50;;
21862;SDS011;11096;51.338;12.524;2023-07-30T09:43:28;2.97;;;1.00;;
21862;SDS011;11096;51.338;12.524;2023-07-30T09:46:03;2.00;;;1.38;;
21862;SDS011;11096;51.338;12.524;2023-07-30T09:48:36;2.25;;;1.30;;
21862;SDS011;11096;51.338;12.524;2023-07-30T09:51:02;2.88;;;1.15;;
21862;SDS011;11096;51.338;12.524;2023-07-30T09:53:32;3.85;;;1.08;;
21862;SDS011;11096;51.338;12.524;2023-07-30T09:56:00;3.15;;;1.10;;
21862;SDS011;11096;51.338;12.524;2023-07-30T09:58:27;3.10;;;1.15;;
21862;SDS011;11096;51.338;12.524;2023-07-30T10:00:53;1.70;;;1.20;;
21862;SDS011;11096;51.338;12.524;2023-07-30T10:03:20;2.53;;;1.10;;
21862;SDS011;11096;51.338;12.524;2023-07-30T10:05:45;3.78;;;1.00;;
21862;SDS011;11096;51.338;12.524;2023-07-30T10:08:13;2.05;;;0.85;;
21862;SDS011;11096;51.338;12.524;2023-07-30T10:10:51;6.43;;;1.13;;
21862;SDS011;11096;51.338;12.524;2023-07-30T10:13:19;2.25;;;0.95;;
21862;SDS011;11096;51.338;12.524;2023-07-30T10:15:45;1.50;;;0.90;;
21862;SDS011;11096;51.338;12.524;2023-07-30T10:18:11;3.30;;;1.30;;
21862;SDS011;11096;51.338;12.524;2023-07-30T10:20:37;3.13;;;0.95;;
21862;SDS011;11096;51.338;12.524;2023-07-30T10:23:04;2.92;;;1.15;;
21862;SDS011;11096;51.338;12.524;2023-07-30T10:25:42;1.58;;;0.88;;
21862;SDS011;11096;51.338;12.524;2023-07-30T10:28:25;1.30;;;0.98;;
21862;SDS011;11096;51.338;12.524;2023-07-30T10:30:55;4.45;;;1.45;;
21862;SDS011;11096;51.338;12.524;2023-07-30T10:36:18;2.80;;;0.95;;
21862;SDS011;11096;51.338;12.524;2023-07-30T10:38:55;3.90;;;1.10;;
21862;SDS011;11096;51.338;12.524;2023-07-30T10:41:21;1.98;;;1.00;;
21862;SDS011;11096;51.338;12.524;2023-07-30T10:43:48;3.38;;;1.10;;
21862;SDS011;11096;51.338;12.524;2023-07-30T10:46:15;1.42;;;1.00;;
21862;SDS011;11096;51.338;12.524;2023-07-30T10:48:43;1.90;;;0.98;;
21862;SDS011;11096;51.338;12.524;2023-07-30T10:51:10;1.80;;;0.90;;
21862;SDS011;11096;51.338;12.524;2023-07-30T10:53:46;2.70;;;0.77;;
21862;SDS011;11096;51.338;12.524;2023-07-30T10:56:15;1.35;;;0.70;;
21862;SDS011;11096;51.338;12.524;2023-07-30T10:58:42;0.63;;;0.63;;
21862;SDS011;11096;51.338;12.524;2023-07-30T11:01:08;0.70;;;0.60;;
21862;SDS011;11096;51.338;12.524;2023-07-30T11:03:34;1.35;;;0.80;;
21862;SDS011;11096;51.338;12.524;2023-07-30T11:06:01;3.65;;;0.88;;
21862;SDS011;11096;51.338;12.524;2023-07-30T11:08:36;0.80;;;0.57;;
21862;SDS011;11096;51.338;12.524;2023-07-30T11:11:04;1.52;;;0.68;;
21862;SDS011;11096;51.338;12.524;2023-07-30T11:13:37;2.25;;;0.50;;
21862;SDS011;11096;51.338;12.524;2023-07-30T11:16:06;0.85;;;0.50;;
21862;SDS011;11096;51.338;12.524;2023-07-30T11:18:33;0.45;;;0.30;;
21862;SDS011;11096;51.338;12.524;2023-07-30T11:21:12;4.65;;;0.60;;
21862;SDS011;11096;51.338;12.524;2023-07-30T11:23:39;3.17;;;0.50;;
21862;SDS011;11096;51.338;12.524;2023-07-30T11:26:07;3.65;;;0.70;;
21862;SDS011;11096;51.338;12.524;2023-07-30T11:28:34;1.10;;;0.47;;
21862;SDS011;11096;51.338;12.524;2023-07-30T11:31:11;1.95;;;0.50;;
21862;SDS011;11096;51.338;12.524;2023-07-30T11:33:41;3.80;;;0.50;;
21862;SDS011;11096;51.338;12.524;2023-07-30T11:36:26;0.98;;;0.47;;
21862;SDS011;11096;51.338;12.524;2023-07-30T11:38:52;0.40;;;0.38;;
21862;SDS011;11096;51.338;12.524;2023-07-30T11:41:18;0.63;;;0.38;;
21862;SDS011;11096;51.338;12.524;2023-07-30T11:43:44;1.10;;;0.40;;
21862;SDS011;11096;51.338;12.524;2023-07-30T11:48:40;3.13;;;0.45;;
21862;SDS011;11096;51.338;12.524;2023-07-30T11:51:17;1.20;;;0.40;;
21862;SDS011;11096;51.338;12.524;2023-07-30T11:53:48;2.40;;;0.30;;
21862;SDS011;11096;51.338;12.524;2023-07-30T11:56:31;1.65;;;0.43;;
21862;SDS011;11096;51.338;12.524;2023-07-30T11:59:02;3.03;;;0.60;;
21862;SDS011;11096;51.338;12.524;2023-07-30T12:01:31;0.85;;;0.60;;
21862;SDS011;11096;51.338;12.524;2023-07-30T12:03:59;1.98;;;0.40;;
21862;SDS011;11096;51.338;12.524;2023-07-30T12:09:27;0.75;;;0.30;;
21862;SDS011;11096;51.338;12.524;2023-07-30T12:11:56;2.75;;;0.60;;
21862;SDS011;11096;51.338;12.524;2023-07-30T12:14:28;0.82;;;0.30;;
21862;SDS011;11096;51.338;12.524;2023-07-30T12:17:07;5.50;;;0.80;;
21862;SDS011;11096;51.338;12.524;2023-07-30T12:19:32;1.02;;;0.47;;
21862;SDS011;11096;51.338;12.524;2023-07-30T12:21:58;3.45;;;0.57;;
21862;SDS011;11096;51.338;12.524;2023-07-30T12:24:23;2.20;;;0.50;;
21862;SDS011;11096;51.338;12.524;2023-07-30T12:26:48;2.33;;;0.60;;
21862;SDS011;11096;51.338;12.524;2023-07-30T12:29:14;2.05;;;0.55;;
21862;SDS011;11096;51.338;12.524;2023-07-30T12:31:39;2.70;;;0.70;;
21862;SDS011;11096;51.338;12.524;2023-07-30T12:34:04;2.97;;;0.50;;
21862;SDS011;11096;51.338;12.524;2023-07-30T12:36:30;1.98;;;0.50;;
21862;SDS011;11096;51.338;12.524;2023-07-30T12:38:55;2.55;;;0.60;;
21862;SDS011;11096;51.338;12.524;2023-07-30T12:41:21;1.25;;;0.40;;
21862;SDS011;11096;51.338;12.524;2023-07-30T12:43:51;2.55;;;0.77;;
21862;SDS011;11096;51.338;12.524;2023-07-30T12:46:18;0.82;;;0.40;;
21862;SDS011;11096;51.338;12.524;2023-07-30T12:48:44;1.15;;;0.60;;
21862;SDS011;11096;51.338;12.524;2023-07-30T12:51:09;6.57;;;0.63;;
21862;SDS011;11096;51.338;12.524;2023-07-30T12:53:34;2.78;;;0.77;;
21862;SDS011;11096;51.338;12.524;2023-07-30T12:56:00;1.40;;;0.60;;
21862;SDS011;11096;51.338;12.524;2023-07-30T12:58:25;1.10;;;0.50;;
21862;SDS011;11096;51.338;12.524;2023-07-30T13:00:50;2.42;;;0.70;;
21862;SDS011;11096;51.338;12.524;2023-07-30T13:03:16;1.42;;;0.60;;
21862;SDS011;11096;51.338;12.524;2023-07-30T13:05:41;2.50;;;0.98;;
21862;SDS011;11096;51.338;12.524;2023-07-30T13:08:06;2.00;;;0.60;;
21862;SDS011;11096;51.338;12.524;2023-07-30T13:10:32;8.18;;;1.00;;
21862;SDS011;11096;51.338;12.524;2023-07-30T13:12:57;6.93;;;1.40;;
21862;SDS011;11096;51.338;12.524;2023-07-30T13:15:23;5.45;;;1.25;;
21862;SDS011;11096;51.338;12.524;2023-07-30T13:17:48;2.95;;;1.20;;
21862;SDS011;11096;51.338;12.524;2023-07-30T13:20:14;2.97;;;1.30;;
21862;SDS011;11096;51.338;12.524;2023-07-30T13:22:39;5.18;;;1.55;;
21862;SDS011;11096;51.338;12.524;2023-07-30T13:25:04;5.85;;;1.60;;
21862;SDS011;11096;51.338;12.524;2023-07-30T13:27:30;5.65;;;1.80;;
21862;SDS011;11096;51.338;12.524;2023-07-30T13:29:55;5.03;;;1.90;;
21862;SDS011;11096;51.338;12.524;2023-07-30T13:32:21;2.53;;;1.50;;
21862;SDS011;11096;51.338;12.524;2023-07-30T13:34:46;3.25;;;0.98;;
21862;SDS011;11096;51.338;12.524;2023-07-30T13:37:11;2.60;;;1.15;;
21862;SDS011;11096;51.338;12.524;2023-07-30T13:39:37;2.63;;;1.52;;
21862;SDS011;11096;51.338;12.524;2023-07-30T13:42:02;6.63;;;1.90;;
21862;SDS011;11096;51.338;12.524;2023-07-30T13:44:28;5.20;;;2.15;;
21862;SDS011;11096;51.338;12.524;2023-07-30T13:46:53;4.55;;;1.80;;
21862;SDS011;11096;51.338;12.524;2023-07-30T13:49:19;5.10;;;1.73;;
21862;SDS011;11096;51.338;12.524;2023-07-30T13:51:44;5.30;;;2.00;;
21862;SDS011;11096;51.338;12.524;2023-07-30T13:54:09;3.22;;;1.73;;
21862;SDS011;11096;51.338;12.524;2023-07-30T13:56:35;4.78;;;1.88;;
21862;SDS011;11096;51.338;12.524;2023-07-30T13:59:00;2.30;;;1.90;;
21862;SDS011;11096;51.338;12.524;2023-07-30T14:01:26;3.42;;;1.98;;
21862;SDS011;11096;51.338;12.524;2023-07-30T14:03:51;7.10;;;1.70;;
21862;SDS011;11096;51.338;12.524;2023-07-30T14:06:17;7.40;;;1.77;;
21862;SDS011;11096;51.338;12.524;2023-07-30T14:08:42;7.28;;;2.30;;
21862;SDS011;11096;51.338;12.524;2023-07-30T14:11:08;6.70;;;2.80;;
21862;SDS011;11096;51.338;12.524;2023-07-30T14:13:33;4.32;;;2.30;;
21862;SDS011;11096;51.338;12.524;2023-07-30T14:15:59;3.05;;;1.73;;
21862;SDS011;11096;51.338;12.524;2023-07-30T14:18:24;5.70;;;2.38;;
21862;SDS011;11096;51.338;12.524;2023-07-30T14:20:50;2.65;;;1.75;;
21862;SDS011;11096;51.338;12.524;2023-07-30T14:23:16;4.05;;;1.92;;
21862;SDS011;11096;51.338;12.524;2023-07-30T14:25:41;5.63;;;1.70;;
21862;SDS011;11096;51.338;12.524;2023-07-30T14:28:06;3.47;;;1.85;;
21862;SDS011;11096;51.338;12.524;2023-07-30T14:30:32;5.82;;;2.03;;
21862;SDS011;11096;51.338;12.524;2023-07-30T14:32:59;4.97;;;1.20;;
21862;SDS011;11096;51.338;12.524;2023-07-30T14:35:24;4.30;;;1.20;;
21862;SDS011;11096;51.338;12.524;2023-07-30T14:37:50;4.53;;;1.27;;